createdAt,value
2018-07-14T00:00:15.448Z,22.15
2018-07-14T00:01:15.329Z,22.16
2018-07-14T00:02:15.456Z,22.13
2018-07-14T00:03:15.255Z,22.15
2018-07-14T00:04:15.373Z,22.15
2018-07-14T00:05:15.641Z,22.13
2018-07-14T00:06:15.388Z,22.13
2018-07-14T00:07:15.504Z,22.13
2018-07-14T00:08:15.508Z,22.15
2018-07-14T00:09:15.612Z,22.13
2018-07-14T00:10:15.484Z,22.15
2018-07-14T00:11:15.243Z,22.12
2018-07-14T00:12:15.294Z,22.13
2018-07-14T00:13:15.370Z,22.15
2018-07-14T00:14:15.526Z,22.13
2018-07-14T00:15:15.456Z,22.15
2018-07-14T00:16:15.334Z,22.13
2018-07-14T00:17:15.619Z,22.16
2018-07-14T00:18:15.481Z,22.13
2018-07-14T00:19:15.470Z,22.13
2018-07-14T00:20:15.382Z,22.16
2018-07-14T00:21:15.284Z,22.15
2018-07-14T00:22:15.396Z,22.12
2018-07-14T00:23:15.304Z,22.12
2018-07-14T00:24:15.631Z,22.15
2018-07-14T00:25:15.475Z,22.16
2018-07-14T00:26:15.352Z,22.11
2018-07-14T00:27:15.370Z,22.12
2018-07-14T00:28:15.364Z,22.13
2018-07-14T00:29:15.379Z,22.13
2018-07-14T00:30:15.228Z,22.12
2018-07-14T00:31:15.346Z,22.13
2018-07-14T00:32:15.594Z,22.11
2018-07-14T00:33:15.390Z,22.13
2018-07-14T00:34:15.371Z,22.12
2018-07-14T00:35:15.264Z,22.12
2018-07-14T00:36:15.412Z,22.13
2018-07-14T00:37:15.538Z,22.13
2018-07-14T00:38:15.456Z,22.13
2018-07-14T00:39:15.252Z,22.12
2018-07-14T00:40:15.548Z,22.12
2018-07-14T00:41:15.428Z,22.13
2018-07-14T00:42:15.240Z,22.13
2018-07-14T00:43:15.406Z,22.13
2018-07-14T00:44:15.264Z,22.13
2018-07-14T00:45:15.294Z,22.15
2018-07-14T00:46:15.600Z,22.12
2018-07-14T00:47:15.286Z,22.13
2018-07-14T00:48:15.244Z,22.13
2018-07-14T00:49:15.397Z,22.13
2018-07-14T00:50:15.308Z,22.12
2018-07-14T00:51:15.287Z,22.12
2018-07-14T00:52:15.441Z,22.13
2018-07-14T00:53:15.285Z,22.15
2018-07-14T00:54:15.368Z,22.12
2018-07-14T00:55:15.240Z,22.12
2018-07-14T00:56:15.377Z,22.11
2018-07-14T00:57:15.196Z,22.13
2018-07-14T00:58:15.307Z,22.13
2018-07-14T00:59:15.440Z,22.12
2018-07-14T01:00:15.385Z,22.13
2018-07-14T01:01:15.405Z,22.11
2018-07-14T01:02:15.403Z,22.11
2018-07-14T01:03:15.391Z,22.13
2018-07-14T01:04:15.359Z,22.11
2018-07-14T01:05:15.528Z,22.11
2018-07-14T01:06:15.203Z,22.11
2018-07-14T01:07:15.302Z,22.13
2018-07-14T01:08:15.349Z,22.13
2018-07-14T01:09:15.431Z,22.11
2018-07-14T01:10:15.337Z,22.12
2018-07-14T01:11:15.270Z,22.11
2018-07-14T01:12:15.493Z,22.12
2018-07-14T01:13:15.506Z,22.12
2018-07-14T01:14:15.361Z,22.12
2018-07-14T01:15:15.232Z,22.12
2018-07-14T01:16:15.425Z,22.12
2018-07-14T01:17:15.461Z,22.13
2018-07-14T01:18:15.313Z,22.12
2018-07-14T01:19:15.333Z,22.12
2018-07-14T01:20:15.444Z,22.12
2018-07-14T01:21:15.495Z,22.13
2018-07-14T01:22:15.302Z,22.11
2018-07-14T01:23:46.659Z,22.12
2018-07-14T01:24:15.433Z,22.11
2018-07-14T01:25:15.377Z,22.11
2018-07-14T01:26:15.249Z,22.11
2018-07-14T01:27:15.447Z,22.11
2018-07-14T01:28:15.312Z,22.11
2018-07-14T01:29:15.756Z,22.12
2018-07-14T01:30:15.384Z,22.11
2018-07-14T01:31:15.372Z,22.12
2018-07-14T01:32:15.410Z,22.12
2018-07-14T01:33:15.510Z,22.09
2018-07-14T01:34:15.274Z,22.12
2018-07-14T01:35:15.217Z,22.09
2018-07-14T01:36:15.291Z,22.12
2018-07-14T01:37:15.268Z,22.12
2018-07-14T01:38:15.225Z,22.09
2018-07-14T01:39:15.392Z,22.09
2018-07-14T01:40:15.486Z,22.11
2018-07-14T01:41:15.330Z,22.09
2018-07-14T01:42:15.466Z,22.09
2018-07-14T01:43:15.532Z,22.09
2018-07-14T01:44:15.611Z,22.11
2018-07-14T01:45:15.514Z,22.09
2018-07-14T01:46:25.582Z,22.09
2018-07-14T01:47:15.345Z,22.12
2018-07-14T01:48:15.273Z,22.12
2018-07-14T01:49:15.345Z,22.11
2018-07-14T01:50:15.474Z,22.11
2018-07-14T01:51:15.192Z,22.09
2018-07-14T01:52:15.300Z,22.12
2018-07-14T01:53:15.451Z,22.12
2018-07-14T01:54:15.296Z,22.11
2018-07-14T01:55:15.583Z,22.11
2018-07-14T01:56:15.335Z,22.09
2018-07-14T01:57:15.408Z,22.09
2018-07-14T01:58:15.274Z,22.09
2018-07-14T01:59:15.290Z,22.11
2018-07-14T02:00:15.265Z,22.11
2018-07-14T02:01:15.278Z,22.09
2018-07-14T02:02:15.356Z,22.11
2018-07-14T02:03:15.470Z,22.08
2018-07-14T02:04:15.342Z,22.06
2018-07-14T02:05:15.389Z,22.11
2018-07-14T02:06:15.349Z,22.09
2018-07-14T02:07:15.533Z,22.09
2018-07-14T02:08:15.396Z,22.11
2018-07-14T02:09:15.438Z,22.11
2018-07-14T02:10:15.338Z,22.09
2018-07-14T02:11:15.137Z,22.09
2018-07-14T02:12:15.441Z,22.11
2018-07-14T02:13:15.296Z,22.09
2018-07-14T02:14:15.407Z,22.09
2018-07-14T02:15:15.336Z,22.09
2018-07-14T02:16:15.508Z,22.09
2018-07-14T02:17:15.528Z,22.09
2018-07-14T02:18:15.356Z,22.11
2018-07-14T02:19:15.256Z,22.09
2018-07-14T02:20:15.197Z,22.08
2018-07-14T02:21:15.424Z,22.08
2018-07-14T02:22:15.486Z,22.09
2018-07-14T02:23:15.356Z,22.09
2018-07-14T02:24:15.311Z,22.09
2018-07-14T02:25:15.456Z,22.11
2018-07-14T02:26:15.389Z,22.09
2018-07-14T02:27:15.308Z,22.09
2018-07-14T02:28:15.510Z,22.11
2018-07-14T02:29:15.495Z,22.08
2018-07-14T02:30:15.593Z,22.11
2018-07-14T02:31:15.160Z,22.08
2018-07-14T02:32:15.359Z,22.08
2018-07-14T02:33:15.401Z,22.12
2018-07-14T02:34:15.372Z,22.09
2018-07-14T02:35:15.387Z,22.08
2018-07-14T02:36:15.448Z,22.06
2018-07-14T02:37:15.434Z,22.08
2018-07-14T02:38:15.487Z,22.09
2018-07-14T02:39:15.505Z,22.09
2018-07-14T02:40:15.220Z,22.08
2018-07-14T02:41:15.729Z,22.09
2018-07-14T02:42:15.331Z,22.09
2018-07-14T02:43:15.485Z,22.06
2018-07-14T02:44:15.280Z,22.11
2018-07-14T02:45:15.382Z,22.08
2018-07-14T02:46:15.329Z,22.06
2018-07-14T02:47:15.229Z,22.09
2018-07-14T02:48:15.363Z,22.09
2018-07-14T02:49:15.444Z,22.08
2018-07-14T02:50:15.720Z,22.08
2018-07-14T02:51:15.402Z,22.06
2018-07-14T02:52:15.552Z,22.08
2018-07-14T02:53:15.264Z,22.08
2018-07-14T02:54:15.345Z,22.08
2018-07-14T02:55:15.338Z,22.06
2018-07-14T02:56:15.479Z,22.08
2018-07-14T02:57:15.331Z,22.08
2018-07-14T02:58:15.173Z,22.09
2018-07-14T02:59:15.317Z,22.09
2018-07-14T03:00:15.317Z,22.11
2018-07-14T03:01:15.303Z,22.11
2018-07-14T03:02:15.321Z,22.08
2018-07-14T03:03:15.420Z,22.06
2018-07-14T03:04:15.456Z,22.06
2018-07-14T03:05:15.493Z,22.08
2018-07-14T03:06:15.409Z,22.08
2018-07-14T03:07:15.402Z,22.11
2018-07-14T03:08:15.346Z,22.06
2018-07-14T03:09:15.365Z,22.08
2018-07-14T03:10:15.358Z,22.06
2018-07-14T03:11:15.358Z,22.08
2018-07-14T03:12:15.404Z,22.06
2018-07-14T03:13:15.776Z,22.09
2018-07-14T03:14:15.328Z,22.08
2018-07-14T03:15:15.468Z,22.08
2018-07-14T03:16:15.483Z,22.08
2018-07-14T03:17:15.377Z,22.06
2018-07-14T03:18:15.339Z,22.08
2018-07-14T03:19:15.759Z,22.06
2018-07-14T03:20:15.298Z,22.06
2018-07-14T03:21:15.459Z,22.06
2018-07-14T03:22:15.557Z,22.06
2018-07-14T03:23:15.299Z,22.11
2018-07-14T03:24:15.409Z,22.06
2018-07-14T03:25:15.208Z,22.06
2018-07-14T03:26:15.821Z,22.06
2018-07-14T03:27:15.313Z,22.05
2018-07-14T03:28:15.354Z,22.08
2018-07-14T03:29:15.126Z,22.09
2018-07-14T03:30:15.462Z,22.09
2018-07-14T03:31:15.347Z,22.05
2018-07-14T03:32:15.360Z,22.06
2018-07-14T03:33:15.830Z,22.08
2018-07-14T03:34:15.270Z,22.08
2018-07-14T03:35:15.298Z,22.06
2018-07-14T03:36:15.403Z,22.06
2018-07-14T03:37:15.361Z,22.06
2018-07-14T03:38:15.213Z,22.06
2018-07-14T03:39:15.217Z,22.08
2018-07-14T03:40:15.432Z,22.08
2018-07-14T03:41:15.230Z,22.05
2018-07-14T03:42:15.378Z,22.06
2018-07-14T03:43:15.460Z,22.05
2018-07-14T03:44:15.491Z,22.06
2018-07-14T03:45:15.355Z,22.05
2018-07-14T03:46:15.244Z,22.05
2018-07-14T03:47:15.177Z,22.06
2018-07-14T03:48:15.233Z,22.06
2018-07-14T03:49:15.449Z,22.06
2018-07-14T03:50:15.318Z,22.05
2018-07-14T03:51:15.359Z,22.09
2018-07-14T03:52:15.221Z,22.06
2018-07-14T03:53:15.445Z,22.06
2018-07-14T03:54:15.514Z,22.06
2018-07-14T03:55:15.190Z,22.08
2018-07-14T03:56:15.243Z,22.06
2018-07-14T03:57:15.440Z,22.04
2018-07-14T03:58:15.337Z,22.06
2018-07-14T03:59:15.394Z,22.05
2018-07-14T04:00:15.324Z,22.06
2018-07-14T04:01:15.304Z,22.06
2018-07-14T04:02:15.456Z,22.05
2018-07-14T04:03:15.518Z,22.06
2018-07-14T04:04:15.396Z,22.06
2018-07-14T04:05:15.364Z,22.06
2018-07-14T04:06:15.270Z,22.05
2018-07-14T04:07:15.292Z,22.06
2018-07-14T04:08:15.407Z,22.05
2018-07-14T04:09:15.299Z,22.05
2018-07-14T04:10:15.377Z,22.06
2018-07-14T04:11:15.378Z,22.06
2018-07-14T04:12:15.276Z,22.06
2018-07-14T04:13:15.381Z,22.06
2018-07-14T04:14:15.412Z,22.08
2018-07-14T04:15:15.412Z,22.06
2018-07-14T04:16:25.263Z,22.06
2018-07-14T04:17:15.336Z,22.05
2018-07-14T04:18:15.568Z,22.05
2018-07-14T04:19:15.293Z,22.06
2018-07-14T04:20:15.456Z,22.05
2018-07-14T04:21:15.184Z,22.06
2018-07-14T04:22:15.618Z,22.06
2018-07-14T04:23:15.395Z,22.06
2018-07-14T04:24:15.274Z,22.06
2018-07-14T04:25:15.253Z,22.06
2018-07-14T04:26:15.544Z,22.08
2018-07-14T04:27:15.462Z,22.05
2018-07-14T04:28:15.399Z,22.08
2018-07-14T04:29:15.283Z,22.04
2018-07-14T04:30:15.223Z,22.06
2018-07-14T04:31:15.260Z,22.05
2018-07-14T04:32:15.391Z,22.05
2018-07-14T04:33:15.388Z,22.04
2018-07-14T04:34:15.377Z,22.05
2018-07-14T04:35:15.461Z,22.04
2018-07-14T04:36:15.256Z,22.05
2018-07-14T04:37:15.641Z,22.04
2018-07-14T04:38:15.397Z,22.08
2018-07-14T04:39:15.254Z,22.08
2018-07-14T04:40:15.352Z,22.06
2018-07-14T04:41:15.334Z,22.05
2018-07-14T04:42:15.341Z,22.06
2018-07-14T04:43:15.239Z,22.08
2018-07-14T04:44:15.415Z,22.05
2018-07-14T04:45:15.314Z,22.05
2018-07-14T04:46:15.223Z,22.06
2018-07-14T04:47:15.311Z,22.05
2018-07-14T04:48:15.238Z,22.05
2018-07-14T04:49:15.182Z,22.04
2018-07-14T04:50:15.351Z,22.06
2018-07-14T04:51:15.283Z,22.05
2018-07-14T04:52:15.394Z,22.05
2018-07-14T04:53:16.202Z,22.08
2018-07-14T04:54:15.184Z,22.04
2018-07-14T04:55:15.368Z,22.04
2018-07-14T04:56:15.359Z,22.04
2018-07-14T04:57:15.118Z,21.92
2018-07-14T04:58:15.399Z,21.73
2018-07-14T04:59:15.341Z,21.63
2018-07-14T05:00:15.260Z,21.46
2018-07-14T05:01:15.356Z,21.4
2018-07-14T05:02:15.246Z,21.36
2018-07-14T05:03:15.399Z,21.32
2018-07-14T05:04:15.303Z,21.33
2018-07-14T05:05:15.395Z,21.29
2018-07-14T05:06:15.240Z,21.26
2018-07-14T05:07:15.304Z,21.22
2018-07-14T05:08:15.356Z,21.15
2018-07-14T05:09:15.281Z,21.12
2018-07-14T05:10:15.441Z,21.14
2018-07-14T05:11:15.397Z,21.08
2018-07-14T05:12:15.273Z,21.08
2018-07-14T05:13:15.353Z,21.06
2018-07-14T05:14:15.229Z,21.05
2018-07-14T05:15:15.193Z,21.03
2018-07-14T05:16:15.336Z,21.05
2018-07-14T05:17:15.281Z,21.08
2018-07-14T05:18:15.238Z,21.11
2018-07-14T05:19:15.349Z,21.14
2018-07-14T05:20:15.237Z,21.06
2018-07-14T05:21:15.813Z,21.02
2018-07-14T05:22:15.532Z,20.97
2018-07-14T05:23:15.326Z,20.95
2018-07-14T05:24:15.163Z,20.89
2018-07-14T05:25:15.275Z,20.91
2018-07-14T05:26:15.492Z,20.91
2018-07-14T05:27:15.232Z,20.87
2018-07-14T05:28:15.367Z,20.89
2018-07-14T05:29:16.775Z,20.92
2018-07-14T05:30:15.211Z,20.89
2018-07-14T05:31:15.266Z,20.89
2018-07-14T05:32:15.442Z,20.94
2018-07-14T05:33:15.280Z,20.94
2018-07-14T05:34:15.296Z,21.01
2018-07-14T05:35:15.510Z,20.99
2018-07-14T05:36:15.325Z,21.01
2018-07-14T05:37:15.219Z,21.03
2018-07-14T05:38:15.430Z,20.97
2018-07-14T05:39:15.441Z,20.91
2018-07-14T05:40:15.278Z,20.91
2018-07-14T05:41:15.267Z,20.91
2018-07-14T05:42:15.158Z,20.85
2018-07-14T05:43:15.258Z,20.88
2018-07-14T05:44:15.557Z,20.87
2018-07-14T05:45:15.204Z,20.91
2018-07-14T05:46:15.397Z,20.92
2018-07-14T05:47:15.454Z,20.97
2018-07-14T05:48:15.207Z,20.98
2018-07-14T05:49:15.467Z,20.99
2018-07-14T05:50:15.399Z,20.98
2018-07-14T05:51:15.259Z,21.02
2018-07-14T05:52:15.354Z,21.02
2018-07-14T05:53:15.396Z,21.03
2018-07-14T05:54:15.304Z,21.02
2018-07-14T05:55:15.489Z,21.05
2018-07-14T05:56:15.182Z,21.05
2018-07-14T05:57:15.209Z,21.05
2018-07-14T05:58:15.388Z,21.05
2018-07-14T05:59:15.266Z,21.08
2018-07-14T06:00:15.229Z,21.14
2018-07-14T06:01:15.395Z,21.16
2018-07-14T06:02:15.332Z,21.16
2018-07-14T06:03:15.392Z,21.16
2018-07-14T06:04:15.164Z,21.15
2018-07-14T06:05:15.354Z,21.14
2018-07-14T06:06:15.225Z,21.12
2018-07-14T06:07:15.380Z,21.14
2018-07-14T06:08:15.502Z,21.15
2018-07-14T06:09:25.182Z,21.18
2018-07-14T06:10:15.318Z,21.22
2018-07-14T06:11:15.292Z,21.21
2018-07-14T06:12:15.216Z,21.21
2018-07-14T06:13:15.354Z,21.22
2018-07-14T06:14:15.878Z,21.25
2018-07-14T06:15:15.176Z,21.27
2018-07-14T06:16:15.582Z,21.26
2018-07-14T06:17:15.624Z,21.3
2018-07-14T06:18:15.224Z,21.26
2018-07-14T06:19:15.316Z,21.3
2018-07-14T06:20:15.377Z,21.3
2018-07-14T06:21:15.266Z,21.32
2018-07-14T06:22:15.386Z,21.32
2018-07-14T06:23:15.425Z,21.33
2018-07-14T06:24:15.189Z,21.34
2018-07-14T06:25:15.361Z,21.36
2018-07-14T06:26:15.354Z,21.36
2018-07-14T06:27:15.298Z,21.36
2018-07-14T06:28:15.315Z,21.37
2018-07-14T06:29:15.363Z,21.37
2018-07-14T06:30:15.447Z,21.39
2018-07-14T06:31:15.372Z,21.42
2018-07-14T06:32:15.237Z,21.43
2018-07-14T06:33:15.419Z,21.44
2018-07-14T06:34:15.230Z,21.44
2018-07-14T06:35:15.226Z,21.43
2018-07-14T06:36:15.305Z,21.46
2018-07-14T06:37:15.213Z,21.47
2018-07-14T06:38:15.961Z,21.47
2018-07-14T06:39:15.368Z,21.5
2018-07-14T06:40:15.212Z,21.5
2018-07-14T06:41:15.713Z,21.51
2018-07-14T06:42:20.141Z,21.5
2018-07-14T06:43:15.407Z,21.53
2018-07-14T06:44:15.319Z,21.53
2018-07-14T06:45:15.180Z,21.53
2018-07-14T06:46:15.491Z,21.54
2018-07-14T06:47:15.596Z,21.56
2018-07-14T06:48:15.319Z,21.54
2018-07-14T06:49:15.248Z,21.57
2018-07-14T06:50:15.532Z,21.59
2018-07-14T06:51:15.262Z,21.6
2018-07-14T06:52:15.339Z,21.59
2018-07-14T06:53:15.404Z,21.59
2018-07-14T06:54:15.725Z,21.59
2018-07-14T06:55:15.375Z,21.6
2018-07-14T06:56:15.664Z,21.59
2018-07-14T06:57:15.171Z,21.6
2018-07-14T06:58:15.294Z,21.61
2018-07-14T06:59:15.201Z,21.6
2018-07-14T07:00:15.361Z,21.63
2018-07-14T07:01:15.361Z,21.64
2018-07-14T07:02:15.214Z,21.64
2018-07-14T07:03:15.524Z,21.64
2018-07-14T07:04:15.299Z,21.67
2018-07-14T07:05:15.223Z,21.66
2018-07-14T07:06:15.348Z,21.67
2018-07-14T07:07:15.445Z,21.71
2018-07-14T07:08:15.150Z,21.71
2018-07-14T07:09:15.247Z,21.71
2018-07-14T07:10:15.362Z,21.71
2018-07-14T07:11:15.206Z,21.73
2018-07-14T07:12:15.230Z,21.74
2018-07-14T07:13:15.373Z,21.73
2018-07-14T07:14:15.353Z,21.68
2018-07-14T07:15:15.304Z,21.73
2018-07-14T07:16:15.314Z,21.7
2018-07-14T07:17:15.349Z,21.7
2018-07-14T07:18:15.281Z,21.7
2018-07-14T07:19:15.445Z,21.68
2018-07-14T07:20:15.194Z,21.68
2018-07-14T07:21:15.543Z,21.68
2018-07-14T07:22:15.198Z,21.68
2018-07-14T07:23:15.314Z,21.71
2018-07-14T07:24:15.712Z,21.76
2018-07-14T07:25:15.204Z,21.74
2018-07-14T07:26:15.356Z,21.77
2018-07-14T07:27:15.318Z,21.76
2018-07-14T07:28:15.387Z,21.77
2018-07-14T07:29:15.205Z,21.76
2018-07-14T07:30:15.163Z,21.77
2018-07-14T07:31:15.892Z,21.76
2018-07-14T07:32:15.462Z,21.76
2018-07-14T07:33:15.434Z,21.76
2018-07-14T07:34:15.377Z,21.8
2018-07-14T07:35:15.367Z,21.81
2018-07-14T07:36:15.327Z,21.84
2018-07-14T07:37:15.910Z,21.84
2018-07-14T07:38:15.333Z,21.85
2018-07-14T07:39:16.539Z,21.85
2018-07-14T07:40:15.661Z,21.85
2018-07-14T07:41:15.410Z,21.85
2018-07-14T07:42:15.688Z,21.85
2018-07-14T07:43:15.691Z,21.87
2018-07-14T07:44:15.247Z,21.85
2018-07-14T07:45:15.499Z,21.88
2018-07-14T07:46:15.227Z,21.84
2018-07-14T07:47:15.362Z,21.84
2018-07-14T07:48:15.430Z,21.85
2018-07-14T07:49:15.364Z,21.85
2018-07-14T07:50:15.215Z,21.84
2018-07-14T07:51:15.475Z,21.85
2018-07-14T07:52:15.253Z,21.88
2018-07-14T07:53:15.350Z,21.87
2018-07-14T07:54:15.234Z,21.87
2018-07-14T07:55:15.385Z,21.88
2018-07-14T07:56:15.233Z,21.87
2018-07-14T07:57:15.910Z,21.89
2018-07-14T07:58:15.253Z,21.89
2018-07-14T07:59:15.206Z,21.87
2018-07-14T08:00:15.411Z,21.89
2018-07-14T08:01:15.265Z,21.88
2018-07-14T08:02:15.345Z,21.85
2018-07-14T08:03:15.202Z,21.85
2018-07-14T08:04:15.268Z,21.85
2018-07-14T08:05:15.206Z,21.87
2018-07-14T08:06:15.395Z,21.89
2018-07-14T08:07:15.351Z,21.89
2018-07-14T08:08:15.064Z,21.89
2018-07-14T08:09:15.246Z,21.94
2018-07-14T08:10:15.384Z,21.91
2018-07-14T08:11:15.209Z,21.89
2018-07-14T08:12:15.534Z,21.94
2018-07-14T08:13:15.353Z,21.96
2018-07-14T08:14:15.493Z,22.01
2018-07-14T08:15:15.179Z,22.05
2018-07-14T08:16:47.125Z,22.05
2018-07-14T08:17:15.245Z,22.05
2018-07-14T08:18:15.214Z,22.02
2018-07-14T08:19:15.239Z,22.02
2018-07-14T08:20:15.420Z,22.01
2018-07-14T08:21:15.213Z,22.01
2018-07-14T08:22:15.272Z,22.01
2018-07-14T08:23:15.392Z,21.96
2018-07-14T08:24:15.277Z,21.99
2018-07-14T08:25:15.467Z,21.98
2018-07-14T08:26:15.188Z,21.98
2018-07-14T08:27:15.317Z,21.96
2018-07-14T08:28:15.163Z,21.94
2018-07-14T08:29:15.296Z,21.95
2018-07-14T08:30:15.137Z,21.94
2018-07-14T08:31:15.203Z,21.95
2018-07-14T08:32:15.557Z,21.95
2018-07-14T08:33:15.334Z,21.92
2018-07-14T08:34:15.222Z,21.94
2018-07-14T08:35:15.278Z,21.94
2018-07-14T08:36:15.379Z,21.94
2018-07-14T08:37:15.381Z,21.94
2018-07-14T08:38:15.281Z,21.91
2018-07-14T08:39:15.149Z,21.92
2018-07-14T08:40:15.332Z,21.94
2018-07-14T08:41:15.249Z,21.94
2018-07-14T08:42:15.172Z,21.92
2018-07-14T08:43:15.308Z,21.94
2018-07-14T08:44:15.263Z,21.92
2018-07-14T08:45:15.218Z,21.91
2018-07-14T08:46:15.255Z,21.92
2018-07-14T08:47:15.249Z,21.92
2018-07-14T08:48:15.185Z,21.91
2018-07-14T08:49:15.281Z,21.91
2018-07-14T08:50:15.340Z,21.89
2018-07-14T08:51:15.675Z,21.89
2018-07-14T08:52:15.402Z,21.89
2018-07-14T08:53:15.261Z,21.94
2018-07-14T08:54:15.386Z,21.88
2018-07-14T08:55:15.288Z,21.92
2018-07-14T08:56:15.252Z,21.91
2018-07-14T08:57:15.087Z,21.91
2018-07-14T08:58:16.015Z,21.92
2018-07-14T08:59:15.397Z,21.92
2018-07-14T09:00:15.221Z,21.91
2018-07-14T09:01:15.340Z,21.92
2018-07-14T09:02:15.114Z,21.91
2018-07-14T09:03:15.517Z,21.91
2018-07-14T09:04:15.512Z,21.91
2018-07-14T09:05:15.380Z,21.89
2018-07-14T09:06:15.117Z,21.89
2018-07-14T09:07:15.278Z,21.87
2018-07-14T09:08:15.507Z,21.87
2018-07-14T09:09:15.263Z,21.92
2018-07-14T09:10:15.220Z,21.94
2018-07-14T09:11:15.263Z,21.91
2018-07-14T09:12:15.417Z,21.92
2018-07-14T09:13:15.215Z,21.92
2018-07-14T09:14:15.293Z,21.94
2018-07-14T09:15:15.144Z,21.95
2018-07-14T09:16:15.263Z,21.94
2018-07-14T09:17:15.284Z,21.94
2018-07-14T09:18:15.201Z,21.94
2018-07-14T09:19:15.180Z,21.96
2018-07-14T09:20:15.284Z,21.99
2018-07-14T09:21:15.194Z,21.99
2018-07-14T09:22:15.262Z,22.01
2018-07-14T09:23:15.162Z,22.01
2018-07-14T09:24:25.272Z,22.04
2018-07-14T09:25:15.303Z,22.05
2018-07-14T09:26:15.666Z,22.06
2018-07-14T09:27:15.387Z,22.08
2018-07-14T09:28:15.223Z,22.06
2018-07-14T09:29:15.102Z,22.09
2018-07-14T09:30:15.340Z,22.11
2018-07-14T09:31:15.216Z,22.09
2018-07-14T09:32:15.582Z,22.12
2018-07-14T09:33:15.249Z,22.13
2018-07-14T09:34:15.415Z,22.12
2018-07-14T09:35:15.436Z,22.13
2018-07-14T09:36:15.258Z,22.15
2018-07-14T09:37:15.408Z,22.13
2018-07-14T09:38:25.435Z,22.16
2018-07-14T09:39:15.173Z,22.13
2018-07-14T09:40:15.222Z,22.15
2018-07-14T09:41:15.342Z,22.16
2018-07-14T09:42:15.097Z,22.16
2018-07-14T09:43:15.244Z,22.15
2018-07-14T09:44:15.300Z,22.16
2018-07-14T09:45:15.212Z,22.13
2018-07-14T09:46:15.273Z,22.15
2018-07-14T09:47:15.146Z,22.15
2018-07-14T09:48:15.107Z,22.13
2018-07-14T09:49:15.201Z,22.15
2018-07-14T09:50:15.330Z,22.18
2018-07-14T09:51:15.221Z,22.16
2018-07-14T09:52:15.327Z,22.18
2018-07-14T09:53:15.178Z,22.18
2018-07-14T09:54:15.062Z,22.21
2018-07-14T09:55:15.863Z,22.21
2018-07-14T09:56:15.618Z,22.22
2018-07-14T09:57:15.083Z,22.23
2018-07-14T09:58:15.330Z,22.22
2018-07-14T09:59:15.221Z,22.25
2018-07-14T10:00:15.360Z,22.25
2018-07-14T10:01:15.275Z,22.26
2018-07-14T10:02:15.084Z,22.26
2018-07-14T10:03:15.425Z,22.26
2018-07-14T10:04:15.122Z,22.26
2018-07-14T10:05:15.355Z,22.28
2018-07-14T10:06:15.923Z,22.29
2018-07-14T10:07:15.462Z,22.32
2018-07-14T10:08:15.112Z,22.3
2018-07-14T10:09:15.122Z,22.32
2018-07-14T10:10:15.275Z,22.3
2018-07-14T10:11:15.170Z,22.3
2018-07-14T10:12:15.381Z,22.32
2018-07-14T10:13:15.947Z,22.32
2018-07-14T10:14:15.136Z,22.32
2018-07-14T10:15:15.407Z,22.33
2018-07-14T10:16:15.243Z,22.32
2018-07-14T10:17:15.591Z,22.32
2018-07-14T10:18:15.091Z,22.33
2018-07-14T10:19:15.735Z,22.3
2018-07-14T10:20:15.284Z,22.3
2018-07-14T10:21:15.328Z,22.32
2018-07-14T10:22:15.801Z,22.32
2018-07-14T10:23:15.416Z,22.33
2018-07-14T10:24:15.319Z,22.36
2018-07-14T10:25:17.208Z,22.35
2018-07-14T10:26:15.167Z,22.35
2018-07-14T10:27:46.974Z,22.3
2018-07-14T10:28:15.215Z,22.3
2018-07-14T10:29:15.143Z,22.32
2018-07-14T10:30:15.213Z,22.32
2018-07-14T10:31:15.181Z,22.3
2018-07-14T10:32:15.195Z,22.32
2018-07-14T10:33:15.368Z,22.32
2018-07-14T10:34:15.161Z,22.32
2018-07-14T10:35:15.341Z,22.3
2018-07-14T10:36:15.161Z,22.3
2018-07-14T10:37:14.996Z,22.3
2018-07-14T10:38:15.197Z,22.33
2018-07-14T10:38:44.739Z,22.33
2018-07-14T10:39:39.992Z,22.32
2018-07-14T10:40:39.513Z,22.32
2018-07-14T10:40:56.189Z,22.3
2018-07-14T10:41:22.744Z,22.35
2018-07-14T10:44:20.382Z,22.3
2018-07-14T10:44:59.698Z,22.39
2018-07-14T10:45:21.411Z,22.42
2018-07-14T10:46:21.796Z,22.42
2018-07-14T10:47:21.462Z,22.39
2018-07-14T10:48:21.480Z,22.39
2018-07-14T10:49:21.627Z,22.4
2018-07-14T10:50:21.713Z,22.4
2018-07-14T10:51:21.710Z,22.42
2018-07-14T10:52:21.592Z,22.42
2018-07-14T10:53:21.666Z,22.43
2018-07-14T10:54:31.630Z,22.43
2018-07-14T10:55:21.687Z,22.43
2018-07-14T10:56:21.692Z,22.42
2018-07-14T10:57:21.791Z,22.44
2018-07-14T10:58:21.681Z,22.42
2018-07-14T10:59:21.567Z,22.43
2018-07-14T11:00:21.639Z,22.44
2018-07-14T11:01:21.687Z,22.47
2018-07-14T11:02:21.575Z,22.46
2018-07-14T11:03:21.636Z,22.46
2018-07-14T11:04:22.116Z,22.43
2018-07-14T11:05:21.602Z,22.43
2018-07-14T11:06:21.618Z,22.44
2018-07-14T11:07:21.663Z,22.42
2018-07-14T11:08:44.105Z,22.39
2018-07-14T11:09:44.255Z,22.39
2018-07-14T11:10:44.131Z,22.4
2018-07-14T11:11:44.105Z,22.4
2018-07-14T11:12:44.048Z,22.4
2018-07-14T11:13:44.214Z,22.42
2018-07-14T11:14:44.022Z,22.4
2018-07-14T11:15:44.066Z,22.39
2018-07-14T11:16:44.020Z,22.4
2018-07-14T11:17:44.658Z,22.39
2018-07-14T11:18:44.144Z,22.38
2018-07-14T11:19:44.304Z,22.4
2018-07-14T11:20:44.245Z,22.38
2018-07-14T11:21:44.028Z,22.38
2018-07-14T11:22:44.161Z,22.39
2018-07-14T11:23:44.711Z,22.38
2018-07-14T11:24:44.261Z,22.38
2018-07-14T11:25:44.053Z,22.38
2018-07-14T11:26:44.169Z,22.36
2018-07-14T11:27:44.179Z,22.36
2018-07-14T11:28:44.103Z,22.36
2018-07-14T11:29:44.211Z,22.36
2018-07-14T11:30:44.041Z,22.35
2018-07-14T11:31:44.174Z,22.36
2018-07-14T11:32:44.177Z,22.33
2018-07-14T11:33:44.125Z,22.35
2018-07-14T11:34:44.309Z,22.36
2018-07-14T11:35:44.199Z,22.33
2018-07-14T11:36:44.294Z,22.29
2018-07-14T11:37:44.964Z,22.28
2018-07-14T11:38:44.146Z,22.3
2018-07-14T11:39:44.264Z,22.29
2018-07-14T11:40:44.160Z,22.26
2018-07-14T11:41:44.145Z,22.25
2018-07-14T11:42:44.254Z,22.28
2018-07-14T11:43:44.352Z,22.26
2018-07-14T11:44:44.184Z,22.26
2018-07-14T11:45:44.153Z,22.23
2018-07-14T11:46:44.112Z,22.22
2018-07-14T11:47:44.522Z,22.25
2018-07-14T11:48:44.238Z,22.23
2018-07-14T11:49:44.005Z,22.25
2018-07-14T11:50:44.061Z,22.25
2018-07-14T11:51:44.189Z,22.23
2018-07-14T11:52:44.308Z,22.22
2018-07-14T11:53:44.200Z,22.22
2018-07-14T11:54:44.462Z,22.23
2018-07-14T11:55:44.186Z,22.23
2018-07-14T11:56:44.123Z,22.21
2018-07-14T11:57:44.267Z,22.22
2018-07-14T11:58:44.322Z,22.23
2018-07-14T11:59:44.081Z,22.22
2018-07-14T12:00:44.108Z,22.23
2018-07-14T12:01:44.241Z,22.23
2018-07-14T12:02:44.006Z,22.22
2018-07-14T12:03:44.369Z,22.23
2018-07-14T12:04:44.197Z,22.19
2018-07-14T12:05:44.199Z,22.21
2018-07-14T12:06:44.238Z,22.23
2018-07-14T12:07:44.291Z,22.23
2018-07-14T12:08:44.329Z,22.21
2018-07-14T12:09:44.254Z,22.22
2018-07-14T12:10:44.386Z,22.22
2018-07-14T12:11:44.062Z,22.21
2018-07-14T12:12:44.177Z,22.22
2018-07-14T12:13:44.464Z,22.21
2018-07-14T12:14:44.141Z,22.21
2018-07-14T12:15:44.313Z,22.21
2018-07-14T12:16:44.180Z,22.22
2018-07-14T12:17:44.102Z,22.22
2018-07-14T12:18:44.065Z,22.21
2018-07-14T12:19:44.043Z,22.21
2018-07-14T12:20:44.107Z,22.21
2018-07-14T12:21:44.232Z,22.21
2018-07-14T12:22:44.074Z,22.25
2018-07-14T12:23:44.183Z,22.23
2018-07-14T12:24:44.343Z,22.25
2018-07-14T12:25:44.081Z,22.25
2018-07-14T12:26:44.468Z,22.26
2018-07-14T12:27:44.023Z,22.28
2018-07-14T12:28:44.340Z,22.28
2018-07-14T12:29:44.197Z,22.28
2018-07-14T12:30:44.590Z,22.3
2018-07-14T12:31:44.326Z,22.32
2018-07-14T12:32:44.214Z,22.32
2018-07-14T12:33:44.254Z,22.33
2018-07-14T12:34:44.168Z,22.33
2018-07-14T12:35:44.279Z,22.32
2018-07-14T12:36:45.335Z,22.32
2018-07-14T12:37:44.261Z,22.33
2018-07-14T12:38:44.330Z,22.32
2018-07-14T12:39:46.334Z,22.33
2018-07-14T12:40:44.429Z,22.35
2018-07-14T12:41:44.360Z,22.36
2018-07-14T12:42:44.128Z,22.38
2018-07-14T12:43:44.131Z,22.4
2018-07-14T12:44:44.292Z,22.39
2018-07-14T12:45:44.170Z,22.42
2018-07-14T12:46:44.064Z,22.42
2018-07-14T12:47:44.212Z,22.42
2018-07-14T12:48:44.381Z,22.46
2018-07-14T12:49:44.467Z,22.44
2018-07-14T12:50:44.436Z,22.44
2018-07-14T12:51:44.121Z,22.43
2018-07-14T12:52:44.150Z,22.44